Time;durP1;ratioP1;P1;durP2;ratioP2;P2;SDS_P1;SDS_P2;PMS_P1;PMS_P2;Temp;Humidity;BMP_temperature;BMP_pressure;BME280_temperature;BME280_humidity;BME280_pressure;Samples;Min_cycle;Max_cycle;Signal;HPM_P1;HPM_P2
2023/04/25 00:00:36;;;;;;;;;;;;;;;-141.59;100.00;61776.25;5126783;27;19927;-87
2023/04/25 00:03:05;;;;;;;;;;;;;;;-141.59;100.00;61776.25;5111016;28;19950;-89
2023/04/25 00:05:31;;;;;;;;;;;;;;;-141.59;100.00;61776.25;5107776;28;19956;-88
2023/04/25 00:08:00;;;;;;;;;;;;;;;-141.59;100.00;61776.25;5102490;28;19920;-89
2023/04/25 00:10:26;;;;;;;;;;;;;;;-141.59;100.00;61776.25;5097327;28;19975;-87
2023/04/25 00:12:53;;;;;;;;;;;;;;;-141.59;100.00;61776.25;5119600;27;19920;-88
2023/04/25 00:15:20;;;;;;;;;;;;;;;-141.59;100.00;61776.25;5107931;28;20033;-89
2023/04/25 00:17:47;;;;;;;;;;;;;;;-141.59;100.00;61776.25;5101983;28;19946;-89
2023/04/25 00:20:14;;;;;;;;;;;;;;;-141.59;100.00;61776.25;5110796;28;19920;-89
2023/04/25 00:22:41;;;;;;;;;;;;;;;-141.59;100.00;61776.25;5124453;27;20006;-89
2023/04/25 00:25:09;;;;;;;;;;;;;;;-141.59;100.00;61776.25;5128190;27;20023;-89
2023/04/25 00:27:36;;;;;;;;;;;;;;;-141.59;100.00;61776.25;5111299;28;19958;-89
2023/04/25 00:30:04;;;;;;;;;;;;;;;-141.59;100.00;61776.25;5102112;28;19920;-88
2023/04/25 00:32:31;;;;;;;;;;;;;;;-141.59;100.00;61776.25;5104162;28;19924;-88
2023/04/25 00:34:58;;;;;;;;;;;;;;;-141.59;100.00;61776.25;5104955;28;19920;-89
2023/04/25 00:37:25;;;;;;;;;;;;;;;-141.59;100.00;61776.25;5104031;28;19919;-88
2023/04/25 00:39:53;;;;;;;;;;;;;;;-141.59;100.00;61776.25;5110021;28;19926;-90
2023/04/25 00:42:21;;;;;;;;;;;;;;;-141.59;100.00;61776.25;5108468;28;19919;-88
2023/04/25 00:44:48;;;;;;;;;;;;;;;-141.59;100.00;61776.25;5107383;28;19920;-88
2023/04/25 00:47:16;;;;;;;;;;;;;;;-141.59;100.00;61776.25;5109792;28;19923;-89
2023/04/25 00:49:42;;;;;;;;;;;;;;;-141.59;100.00;61776.25;5106486;28;19927;-87
2023/04/25 00:52:09;;;;;;;;;;;;;;;-141.59;100.00;61776.25;5109671;28;19986;-89
2023/04/25 00:54:36;;;;;;;;;;;;;;;-141.59;100.00;61776.25;5108228;28;19945;-88
2023/04/25 00:57:07;;;;;;;;;;;;;;;-141.59;100.00;61776.25;5105765;28;19959;-88
2023/04/25 00:59:46;;;;;;;;;;;;;;;-141.59;100.00;61776.25;5110541;28;19961;-89
2023/04/25 01:02:13;;;;;;;;;;;;;;;-141.59;100.00;61776.25;5102509;28;19952;-89
2023/04/25 01:04:40;;;;;;;;;;;;;;;-141.59;100.00;61776.25;5109677;28;20037;-89
2023/04/25 01:07:08;;;;;;;;;;;;;;;-141.59;100.00;61776.25;5107843;28;20048;-87
2023/04/25 01:09:34;;;;;;;;;;;;;;;-141.59;100.00;61776.25;5104030;28;19952;-88
2023/04/25 01:12:02;;;;;;;;;;;;;;;-141.59;100.00;61776.25;5100416;28;20004;-89
2023/04/25 01:14:29;;;;;;;;;;;;;;;-141.59;100.00;61776.25;5102398;28;19927;-90
2023/04/25 01:16:58;;;;;;;;;;;;;;;-141.59;100.00;61776.25;5098014;28;19954;-90
2023/04/25 01:19:25;;;;;;;;;;;;;;;-141.59;100.00;61776.25;5106106;28;19920;-89
2023/04/25 01:21:53;;;;;;;;;;;;;;;-141.59;100.00;61776.25;5104217;28;20080;-89
2023/04/25 01:24:20;;;;;;;;;;;;;;;-141.59;100.00;61776.25;5101822;28;19945;-90
2023/04/25 01:26:49;;;;;;;;;;;;;;;-141.59;100.00;61776.25;5107512;28;19923;-90
2023/04/25 01:29:18;;;;;;;;;;;;;;;-141.59;100.00;61776.25;5107221;28;19943;-88
2023/04/25 01:31:46;;;;;;;;;;;;;;;-141.59;100.00;61776.25;5103123;28;19904;-89
2023/04/25 01:34:13;;;;;;;;;;;;;;;-141.59;100.00;61776.25;5104340;28;19930;-88
2023/04/25 01:36:40;;;;;;;;;;;;;;;-141.59;100.00;61776.25;5118263;27;19946;-87
2023/04/25 01:39:08;;;;;;;;;;;;;;;-141.59;100.00;61776.25;5105418;28;20007;-89
2023/04/25 01:41:35;;;;;;;;;;;;;;;-141.59;100.00;61776.25;5101649;28;20035;-88
2023/04/25 01:44:03;;;;;;;;;;;;;;;-141.59;100.00;61776.25;5124558;27;20033;-89
2023/04/25 01:46:30;;;;;;;;;;;;;;;-141.59;100.00;61776.25;5110782;28;19944;-89
2023/04/25 01:48:57;;;;;;;;;;;;;;;-141.59;100.00;61776.25;5102487;28;19927;-90
2023/04/25 01:51:24;;;;;;;;;;;;;;;-141.59;100.00;61776.25;5098839;28;19941;-88
2023/04/25 01:53:51;;;;;;;;;;;;;;;-141.59;100.00;61776.25;5111492;28;19964;-89
2023/04/25 01:56:20;;;;;;;;;;;;;;;-141.59;100.00;61776.25;5104881;28;19934;-87
2023/04/25 01:58:47;;;;;;;;;;;;;;;-141.59;100.00;61776.25;5100522;28;19927;-89
2023/04/25 02:01:19;;;;;;;;;;;;;;;-141.59;100.00;61776.25;5108157;28;19963;-90
2023/04/25 02:03:58;;;;;;;;;;;;;;;-141.59;100.00;61776.25;5108292;28;19991;-89
2023/04/25 02:06:32;;;;;;;;;;;;;;;-141.59;100.00;61776.25;5114029;28;19954;-90
2023/04/25 02:08:59;;;;;;;;;;;;;;;-141.59;100.00;61776.25;5099271;28;19958;-91
2023/04/25 02:11:27;;;;;;;;;;;;;;;-141.59;100.00;61776.25;5097859;28;19946;-89
2023/04/25 02:14:08;;;;;;;;;;;;;;;-141.59;100.00;61776.25;5105159;28;19979;-88
2023/04/25 02:16:44;;;;;;;;;;;;;;;-141.59;100.00;61776.25;5110577;28;19947;-89
2023/04/25 02:19:11;;;;;;;;;;;;;;;-141.59;100.00;61776.25;5112543;28;19990;-88
2023/04/25 02:21:38;;;;;;;;;;;;;;;-141.59;100.00;61776.25;5102424;28;19943;-87
2023/04/25 02:24:05;;;;;;;;;;;;;;;-141.59;100.00;61776.25;5107957;28;19949;-90
2023/04/25 02:26:35;;;;;;;;;;;;;;;-141.59;100.00;61776.25;5110020;28;19953;-87
2023/04/25 02:29:02;;;;;;;;;;;;;;;-141.59;100.00;61776.25;5104543;28;19944;-89
2023/04/25 02:31:29;;;;;;;;;;;;;;;-141.59;100.00;61776.25;5111379;28;19948;-89
2023/04/25 02:33:58;;;;;;;;;;;;;;;-141.59;100.00;61776.25;5106989;28;19947;-87
2023/04/25 02:36:26;;;;;;;;;;;;;;;-141.59;100.00;61776.25;5126938;27;20082;-87
2023/04/25 02:38:52;;;;;;;;;;;;;;;-141.59;100.00;61776.25;5108282;28;19943;-88
2023/04/25 02:41:21;;;;;;;;;;;;;;;-141.59;100.00;61776.25;5110517;28;19958;-89
2023/04/25 02:43:49;;;;;;;;;;;;;;;-141.59;100.00;61776.25;5111897;28;19946;-88
2023/04/25 02:46:18;;;;;;;;;;;;;;;-141.59;100.00;61776.25;5107945;28;19950;-89
2023/04/25 02:48:47;;;;;;;;;;;;;;;-141.59;100.00;61776.25;5113677;27;20013;-87
2023/04/25 02:51:13;;;;;;;;;;;;;;;-141.59;100.00;61776.25;5109704;27;19969;-88
2023/04/25 02:53:40;;;;;;;;;;;;;;;-141.59;100.00;61776.25;5122527;27;19944;-88
2023/04/25 02:56:07;;;;;;;;;;;;;;;-141.59;100.00;61776.25;5112719;28;19951;-89
2023/04/25 02:58:34;;;;;;;;;;;;;;;-141.59;100.00;61776.25;5111569;28;19946;-88
2023/04/25 03:01:02;;;;;;;;;;;;;;;-141.59;100.00;61776.25;5106481;28;19960;-88
2023/04/25 03:03:29;;;;;;;;;;;;;;;-141.59;100.00;61776.25;5109394;28;19955;-89
2023/04/25 03:05:56;;;;;;;;;;;;;;;-141.59;100.00;61776.25;5109540;28;19942;-89
2023/04/25 03:08:32;;;;;;;;;;;;;;;-141.59;100.00;61776.25;5106608;28;19948;-89
2023/04/25 03:11:00;;;;;;;;;;;;;;;-141.59;100.00;61776.25;5113951;28;19996;-87
2023/04/25 03:13:29;;;;;;;;;;;;;;;-141.59;100.00;61776.25;5100340;28;19971;-89
2023/04/25 03:15:57;;;;;;;;;;;;;;;-141.59;100.00;61776.25;5106048;28;20054;-89
2023/04/25 03:18:25;;;;;;;;;;;;;;;-141.59;100.00;61776.25;5108999;28;19946;-88
2023/04/25 03:20:52;;;;;;;;;;;;;;;-141.59;100.00;61776.25;5105446;28;20071;-86
2023/04/25 03:23:19;;;;;;;;;;;;;;;-141.59;100.00;61776.25;5109450;28;19969;-88
2023/04/25 03:25:46;;;;;;;;;;;;;;;-141.59;100.00;61776.25;5109319;28;19997;-89
2023/04/25 03:28:13;;;;;;;;;;;;;;;-141.59;100.00;61776.25;5107591;28;19987;-89
2023/04/25 03:30:39;;;;;;;;;;;;;;;-141.59;100.00;61776.25;5112853;28;19952;-88
2023/04/25 03:33:06;;;;;;;;;;;;;;;-141.59;100.00;61776.25;5112069;28;19943;-88
2023/04/25 03:35:35;;;;;;;;;;;;;;;-141.59;100.00;61776.25;5110856;28;19953;-89
2023/04/25 03:38:01;;;;;;;;;;;;;;;-141.59;100.00;61776.25;5108129;28;19968;-88
2023/04/25 03:40:33;;;;;;;;;;;;;;;-141.59;100.00;61776.25;5108124;28;19963;-89
2023/04/25 03:43:23;;;;;;;;;;;;;;;-141.59;100.00;61776.25;5095088;28;19950;-89
2023/04/25 03:45:55;;;;;;;;;;;;;;;-141.59;100.00;61776.25;5107731;28;19944;-89
2023/04/25 03:48:24;;;;;;;;;;;;;;;-141.59;100.00;61776.25;5104361;28;20054;-89
2023/04/25 03:50:53;;;;;;;;;;;;;;;-141.59;100.00;61776.25;5106767;28;19983;-89
2023/04/25 03:53:20;;;;;;;;;;;;;;;-141.59;100.00;61776.25;5112604;28;19949;-88
2023/04/25 03:56:21;;;;;;;;;;;;;;;-141.59;100.00;61776.25;5106785;28;20204;-88
2023/04/25 03:58:55;;;;;;;;;;;;;;;-141.59;100.00;61776.25;5110425;28;19952;-88
2023/04/25 04:01:25;;;;;;;;;;;;;;;-141.59;100.00;61776.25;5108500;28;19957;-88
2023/04/25 04:03:53;;;;;;;;;;;;;;;-141.59;100.00;61776.25;5106978;28;19986;-88
2023/04/25 04:06:21;;;;;;;;;;;;;;;-141.59;100.00;61776.25;5108347;28;19924;-87
2023/04/25 04:08:52;;;;;;;;;;;;;;;-141.59;100.00;61776.25;5107868;28;19927;-88
2023/04/25 04:11:20;;;;;;;;;;;;;;;-141.59;100.00;61776.25;5103150;28;19920;-89
2023/04/25 04:13:47;;;;;;;;;;;;;;;-141.59;100.00;61776.25;5102816;28;19946;-88
2023/04/25 04:16:14;;;;;;;;;;;;;;;-141.59;100.00;61776.25;5109258;28;19919;-88
2023/04/25 04:18:41;;;;;;;;;;;;;;;-141.59;100.00;61776.25;5105670;28;19972;-88
2023/04/25 04:21:08;;;;;;;;;;;;;;;-141.59;100.00;61776.25;5097256;28;19919;-88
2023/04/25 04:23:38;;;;;;;;;;;;;;;-141.59;100.00;61776.25;5107878;28;19942;-88
2023/04/25 04:26:07;;;;;;;;;;;;;;;-141.59;100.00;61776.25;5110490;28;19962;-88
2023/04/25 04:28:45;;;;;;;;;;;;;;;-141.59;100.00;61776.25;5113459;28;19920;-90
2023/04/25 04:31:23;;;;;;;;;;;;;;;-141.59;100.00;61776.25;5108591;28;19927;-89
2023/04/25 04:33:51;;;;;;;;;;;;;;;-141.59;100.00;61776.25;5132597;27;19928;-90
2023/04/25 04:36:19;;;;;;;;;;;;;;;-141.59;100.00;61776.25;5112031;28;19976;-89
2023/04/25 04:38:48;;;;;;;;;;;;;;;-141.59;100.00;61776.25;5110417;28;19926;-87
2023/04/25 04:41:24;;;;;;;;;;;;;;;-141.59;100.00;61776.25;5111780;28;19920;-89
2023/04/25 04:44:03;;;;;;;;;;;;;;;-141.59;100.00;61776.25;5125935;27;19949;-88
2023/04/25 04:46:53;;;;;;;;;;;;;;;-141.59;100.00;61776.25;5103676;28;19920;-87
2023/04/25 04:49:31;;;;;;;;;;;;;;;-141.59;100.00;61776.25;5109112;28;19927;-87
2023/04/25 04:52:21;;;;;;;;;;;;;;;-141.59;100.00;61776.25;5104946;28;20002;-88
2023/04/25 04:54:55;;;;;;;;;;;;;;;-141.59;100.00;61776.25;5103275;28;19919;-88
2023/04/25 04:57:48;;;;;;;;;;;;;;;-141.59;100.00;61776.25;5101251;28;19920;-87
2023/04/25 05:00:41;;;;;;;;;;;;;;;-141.59;100.00;61776.25;5070727;28;19927;-88
2023/04/25 05:03:34;;;;;;;;;;;;;;;-141.59;100.00;61776.25;5101396;28;19992;-87
2023/04/25 05:06:31;;;;;;;;;;;;;;;-141.59;100.00;61776.25;5093032;28;19930;-87
2023/04/25 05:09:25;;;;;;;;;;;;;;;-141.59;100.00;61776.25;5105569;28;21126;-87
2023/04/25 05:12:07;;;;;;;;;;;;;;;-141.59;100.00;61776.25;5094253;28;19920;-87
2023/04/25 05:14:50;;;;;;;;;;;;;;;-141.59;100.00;61776.25;5109221;28;19924;-87
2023/04/25 05:17:40;;;;;;;;;;;;;;;-141.59;100.00;61776.25;5086272;28;20136;-88
2023/04/25 05:20:25;;;;;;;;;;;;;;;-141.59;100.00;61776.25;5106304;28;19926;-86
2023/04/25 05:23:11;;;;;;;;;;;;;;;-141.59;100.00;61776.25;5111420;28;20091;-87
2023/04/25 05:25:58;;;;;;;;;;;;;;;-141.59;100.00;61776.25;5094418;28;19924;-86
2023/04/25 05:28:46;;;;;;;;;;;;;;;-141.59;100.00;61776.25;5110595;28;19934;-87
2023/04/25 05:31:31;;;;;;;;;;;;;;;-141.59;100.00;61776.25;5106889;28;19926;-87
2023/04/25 05:34:10;;;;;;;;;;;;;;;-141.59;100.00;61776.25;5107136;28;19924;-86
2023/04/25 05:36:44;;;;;;;;;;;;;;;-141.59;100.00;61776.25;5101807;28;19927;-86
2023/04/25 05:39:11;;;;;;;;;;;;;;;-141.59;100.00;61776.25;5102152;28;19972;-86
2023/04/25 05:42:07;;;;;;;;;;;;;;;-141.59;100.00;61776.25;5104619;28;19933;-87
2023/04/25 05:45:02;;;;;;;;;;;;;;;-141.59;100.00;61776.25;5070732;28;19927;-86
2023/04/25 05:47:43;;;;;;;;;;;;;;;-141.59;100.00;61776.25;5097301;28;19920;-86
2023/04/25 05:50:30;;;;;;;;;;;;;;;-141.59;100.00;61776.25;5084177;28;19919;-87
2023/04/25 05:53:02;;;;;;;;;;;;;;;-141.59;100.00;61776.25;5107481;28;19969;-87
2023/04/25 05:55:52;;;;;;;;;;;;;;;-141.59;100.00;61776.25;5106234;28;19920;-86
2023/04/25 05:58:24;;;;;;;;;;;;;;;-141.59;100.00;61776.25;5114468;28;19928;-86
2023/04/25 06:00:53;;;;;;;;;;;;;;;-141.59;100.00;61776.25;5107291;28;19920;-87
2023/04/25 06:03:20;;;;;;;;;;;;;;;-141.59;100.00;61776.25;5107602;28;20032;-86
2023/04/25 06:05:46;;;;;;;;;;;;;;;-141.59;100.00;61776.25;5113705;28;19924;-88
2023/04/25 06:08:13;;;;;;;;;;;;;;;-141.59;100.00;61776.25;5100925;28;19920;-87
2023/04/25 06:10:40;;;;;;;;;;;;;;;-141.59;100.00;61776.25;5105480;28;19972;-87
2023/04/25 06:13:07;;;;;;;;;;;;;;;-141.59;100.00;61776.25;5126723;27;19930;-86
2023/04/25 06:15:35;;;;;;;;;;;;;;;-141.59;100.00;61776.25;5113382;28;19923;-88
2023/04/25 06:18:03;;;;;;;;;;;;;;;-141.59;100.00;61776.25;5124018;27;19927;-86
2023/04/25 06:20:30;;;;;;;;;;;;;;;-141.59;100.00;61776.25;5104230;28;19973;-87
2023/04/25 06:22:59;;;;;;;;;;;;;;;-141.59;100.00;61776.25;5106726;27;19973;-86
2023/04/25 06:25:36;;;;;;;;;;;;;;;-141.59;100.00;61776.25;5111245;28;19956;-87
2023/04/25 06:28:03;;;;;;;;;;;;;;;-141.59;100.00;61776.25;5111496;28;19920;-87
2023/04/25 06:30:30;;;;;;;;;;;;;;;-141.59;100.00;61776.25;5109271;27;19927;-86
2023/04/25 06:33:04;;;;;;;;;;;;;;;-141.59;100.00;61776.25;5113811;28;19927;-88
2023/04/25 06:35:32;;;;;;;;;;;;;;;-141.59;100.00;61776.25;5108556;28;19956;-86
2023/04/25 06:37:59;;;;;;;;;;;;;;;-141.59;100.00;61776.25;5110888;28;19919;-87
2023/04/25 06:40:26;;;;;;;;;;;;;;;-141.59;100.00;61776.25;5112658;28;19919;-87
2023/04/25 06:42:53;;;;;;;;;;;;;;;-141.59;100.00;61776.25;5112366;28;19960;-87
2023/04/25 06:45:43;;;;;;;;;;;;;;;-141.59;100.00;61776.25;5108516;28;19928;-87
2023/04/25 06:48:11;;;;;;;;;;;;;;;-141.59;100.00;61776.25;5110225;28;20120;-87
2023/04/25 06:50:38;;;;;;;;;;;;;;;-141.59;100.00;61776.25;5109205;27;19935;-86
2023/04/25 06:53:05;;;;;;;;;;;;;;;-141.59;100.00;61776.25;5108902;27;19929;-86
2023/04/25 06:55:32;;;;;;;;;;;;;;;-141.59;100.00;61776.25;5106391;27;19923;-86
2023/04/25 06:58:13;;;;;;;;;;;;;;;-141.59;100.00;61776.25;5113118;28;19975;-86
2023/04/25 07:01:03;;;;;;;;;;;;;;;-141.59;100.00;61776.25;5103131;28;19972;-87
2023/04/25 07:03:31;;;;;;;;;;;;;;;-141.59;100.00;61776.25;5094163;28;20015;-87
2023/04/25 07:06:02;;;;;;;;;;;;;;;-141.59;100.00;61776.25;5107753;28;19919;-86
2023/04/25 07:08:29;;;;;;;;;;;;;;;-141.59;100.00;61776.25;5108592;28;19934;-88
2023/04/25 07:10:57;;;;;;;;;;;;;;;-141.59;100.00;61776.25;5105720;28;19943;-90
2023/04/25 07:13:24;;;;;;;;;;;;;;;-141.59;100.00;61776.25;5109319;28;19924;-87
2023/04/25 07:15:51;;;;;;;;;;;;;;;-141.59;100.00;61776.25;5095421;28;20014;-87
2023/04/25 07:18:20;;;;;;;;;;;;;;;-141.59;100.00;61776.25;5106988;28;20036;-87
2023/04/25 07:20:49;;;;;;;;;;;;;;;-141.59;100.00;61776.25;5103686;28;19927;-87
2023/04/25 07:23:16;;;;;;;;;;;;;;;-141.59;100.00;61776.25;5102471;28;19983;-88
2023/04/25 07:25:43;;;;;;;;;;;;;;;-141.59;100.00;61776.25;5106310;28;19926;-87
2023/04/25 07:28:10;;;;;;;;;;;;;;;-141.59;100.00;61776.25;5098361;28;19920;-86
2023/04/25 07:30:37;;;;;;;;;;;;;;;-141.59;100.00;61776.25;5103796;28;19932;-87
2023/04/25 07:33:04;;;;;;;;;;;;;;;-141.59;100.00;61776.25;5101652;28;19974;-87
2023/04/25 07:35:31;;;;;;;;;;;;;;;-141.59;100.00;61776.25;5105683;28;19923;-87
2023/04/25 07:37:59;;;;;;;;;;;;;;;-141.59;100.00;61776.25;5111260;28;19926;-86
2023/04/25 07:40:26;;;;;;;;;;;;;;;-141.59;100.00;61776.25;5106084;28;19924;-86
2023/04/25 07:42:58;;;;;;;;;;;;;;;-141.59;100.00;61776.25;5106284;28;19920;-86
2023/04/25 07:45:35;;;;;;;;;;;;;;;-141.59;100.00;61776.25;5102291;28;19920;-87
2023/04/25 07:48:02;;;;;;;;;;;;;;;-141.59;100.00;61776.25;5106950;28;19962;-86
2023/04/25 07:50:31;;;;;;;;;;;;;;;-141.59;100.00;61776.25;5105399;28;20012;-86
2023/04/25 07:53:02;;;;;;;;;;;;;;;-141.59;100.00;61776.25;5097104;28;19930;-85
2023/04/25 07:55:33;;;;;;;;;;;;;;;-141.59;100.00;61776.25;5110427;28;20002;-86
2023/04/25 07:58:20;;;;;;;;;;;;;;;-141.59;100.00;61776.25;5109225;28;19928;-85
2023/04/25 08:00:49;;;;;;;;;;;;;;;-141.59;100.00;61776.25;5106871;28;19924;-85
2023/04/25 08:03:30;;;;;;;;;;;;;;;-141.59;100.00;61776.25;5121735;27;19933;-85
2023/04/25 08:05:58;;;;;;;;;;;;;;;-141.59;100.00;61776.25;5106584;28;19926;-86
2023/04/25 08:08:29;;;;;;;;;;;;;;;-141.59;100.00;61776.25;5097263;28;19965;-84
2023/04/25 08:10:56;;;;;;;;;;;;;;;-141.59;100.00;61776.25;5105559;27;19919;-84
2023/04/25 08:13:22;;;;;;;;;;;;;;;-141.59;100.00;61776.25;5099019;27;19919;-84
2023/04/25 08:15:49;;;;;;;;;;;;;;;-141.59;100.00;61776.25;5099034;27;19930;-84
2023/04/25 08:18:16;;;;;;;;;;;;;;;-141.59;100.00;61776.25;5104790;28;19920;-84
2023/04/25 08:20:43;;;;;;;;;;;;;;;-141.59;100.00;61776.25;5110262;28;19919;-84
2023/04/25 08:23:11;;;;;;;;;;;;;;;-141.59;100.00;61776.25;5105897;28;19924;-84
2023/04/25 08:25:51;;;;;;;;;;;;;;;-141.59;100.00;61776.25;5103515;28;19958;-84
2023/04/25 08:28:22;;;;;;;;;;;;;;;-141.59;100.00;61776.25;5104194;28;19930;-84
2023/04/25 08:30:49;;;;;;;;;;;;;;;-141.59;100.00;61776.25;5101097;28;20009;-84
2023/04/25 08:33:17;;;;;;;;;;;;;;;-141.59;100.00;61776.25;5104748;28;19987;-84
2023/04/25 08:36:00;;;;;;;;;;;;;;;-141.59;100.00;61776.25;5125348;27;19979;-84
2023/04/25 08:38:28;;;;;;;;;;;;;;;-141.59;100.00;61776.25;5107697;28;19919;-84
2023/04/25 08:40:57;;;;;;;;;;;;;;;-141.59;100.00;61776.25;5106681;28;19959;-84
2023/04/25 08:43:26;;;;;;;;;;;;;;;-141.59;100.00;61776.25;5104054;28;19927;-84
2023/04/25 08:45:53;;;;;;;;;;;;;;;-141.59;100.00;61776.25;5122103;27;19928;-84
2023/04/25 08:48:43;;;;;;;;;;;;;;;-141.59;100.00;61776.25;5100660;28;19985;-83
2023/04/25 08:51:11;;;;;;;;;;;;;;;-141.59;100.00;61776.25;5099941;28;19934;-84
2023/04/25 08:53:42;;;;;;;;;;;;;;;-141.59;100.00;61776.25;5098012;28;19920;-84
2023/04/25 08:56:13;;;;;;;;;;;;;;;-141.59;100.00;61776.25;5100880;28;20031;-84
2023/04/25 08:58:40;;;;;;;;;;;;;;;-141.59;100.00;61776.25;5100655;28;19924;-83
2023/04/25 09:01:07;;;;;;;;;;;;;;;-141.59;100.00;61776.25;5092430;28;19920;-83
2023/04/25 09:03:41;;;;;;;;;;;;;;;-141.59;100.00;61776.25;5101012;27;19931;-84
2023/04/25 09:06:11;;;;;;;;;;;;;;;-141.59;100.00;61776.25;5105806;28;19930;-84
2023/04/25 09:08:39;;;;;;;;;;;;;;;-141.59;100.00;61776.25;5098668;28;19932;-84
2023/04/25 09:11:07;;;;;;;;;;;;;;;-141.59;100.00;61776.25;5097720;28;19931;-84
2023/04/25 09:13:35;;;;;;;;;;;;;;;-141.59;100.00;61776.25;5105226;28;19919;-84
2023/04/25 09:16:22;;;;;;;;;;;;;;;-141.59;100.00;61776.25;5106830;28;19924;-84
2023/04/25 09:19:22;;;;;;;;;;;;;;;-141.59;100.00;61776.25;5099821;28;19919;-84
2023/04/25 09:21:49;;;;;;;;;;;;;;;-141.59;100.00;61776.25;5097156;28;20006;-84
2023/04/25 09:24:16;;;;;;;;;;;;;;;-141.59;100.00;61776.25;5107026;28;19950;-84
2023/04/25 09:26:43;;;;;;;;;;;;;;;-141.59;100.00;61776.25;5096135;28;19919;-84
2023/04/25 09:29:12;;;;;;;;;;;;;;;-141.59;100.00;61776.25;5103597;28;19923;-83
2023/04/25 09:31:41;;;;;;;;;;;;;;;-141.59;100.00;61776.25;5107723;28;19962;-84
2023/04/25 09:34:15;;;;;;;;;;;;;;;-141.59;100.00;61776.25;5106484;28;19967;-84
2023/04/25 09:36:47;;;;;;;;;;;;;;;-141.59;100.00;61776.25;5104815;28;19920;-84
2023/04/25 09:39:37;;;;;;;;;;;;;;;-141.59;100.00;61776.25;5107044;28;19926;-84
2023/04/25 09:42:13;;;;;;;;;;;;;;;-141.59;100.00;61776.25;5103549;28;19928;-84
2023/04/25 09:44:45;;;;;;;;;;;;;;;-141.59;100.00;61776.25;5107754;28;19924;-84
2023/04/25 09:47:13;;;;;;;;;;;;;;;-141.59;100.00;61776.25;5104364;28;19986;-84
2023/04/25 09:49:41;;;;;;;;;;;;;;;-141.59;100.00;61776.25;5109212;28;19920;-84
2023/04/25 09:52:14;;;;;;;;;;;;;;;-141.59;100.00;61776.25;5107071;28;19927;-84
2023/04/25 09:54:58;;;;;;;;;;;;;;;-141.59;100.00;61776.25;5098273;28;19928;-84
2023/04/25 09:57:31;;;;;;;;;;;;;;;-141.59;100.00;61776.25;5097503;28;19928;-84
2023/04/25 10:00:05;;;;;;;;;;;;;;;-141.59;100.00;61776.25;5106875;28;19963;-84
2023/04/25 10:02:43;;;;;;;;;;;;;;;-141.59;100.00;61776.25;5107334;28;19919;-84
2023/04/25 10:05:14;;;;;;;;;;;;;;;-141.59;100.00;61776.25;5099322;28;19955;-84
2023/04/25 10:07:41;;;;;;;;;;;;;;;-141.59;100.00;61776.25;5110504;28;19926;-84
2023/04/25 10:10:16;;;;;;;;;;;;;;;-141.59;100.00;61776.25;5108650;28;19934;-83
2023/04/25 10:12:44;;;;;;;;;;;;;;;-141.59;100.00;61776.25;5108079;28;19953;-84
2023/04/25 10:15:13;;;;;;;;;;;;;;;-141.59;100.00;61776.25;5104592;28;19931;-84
2023/04/25 10:17:41;;;;;;;;;;;;;;;-141.59;100.00;61776.25;5103074;28;19920;-84
2023/04/25 10:20:10;;;;;;;;;;;;;;;-141.59;100.00;61776.25;5093501;28;19928;-84
2023/04/25 10:22:38;;;;;;;;;;;;;;;-141.59;100.00;61776.25;5106987;28;19920;-84
2023/04/25 10:25:06;;;;;;;;;;;;;;;-141.59;100.00;61776.25;5091850;28;19927;-84
2023/04/25 10:27:33;;;;;;;;;;;;;;;-141.59;100.00;61776.25;5107434;28;19975;-84
2023/04/25 10:30:04;;;;;;;;;;;;;;;-141.59;100.00;61776.25;5106447;28;19927;-84
2023/04/25 10:32:33;;;;;;;;;;;;;;;-141.59;100.00;61776.25;5098814;28;19930;-83
2023/04/25 10:35:11;;;;;;;;;;;;;;;-141.59;100.00;61776.25;5105709;28;19961;-84
2023/04/25 10:37:38;;;;;;;;;;;;;;;-141.59;100.00;61776.25;5103033;28;19941;-85
2023/04/25 10:40:09;;;;;;;;;;;;;;;-141.59;100.00;61776.25;5107505;28;19923;-84
2023/04/25 10:42:36;;;;;;;;;;;;;;;-141.59;100.00;61776.25;5104861;28;19980;-84
2023/04/25 10:45:05;;;;;;;;;;;;;;;-141.59;100.00;61776.25;5111098;28;19932;-84
2023/04/25 10:47:45;;;;;;;;;;;;;;;-141.59;100.00;61776.25;5110036;28;19920;-85
2023/04/25 10:50:12;;;;;;;;;;;;;;;-141.59;100.00;61776.25;5109789;28;19920;-85
2023/04/25 10:52:40;;;;;;;;;;;;;;;-141.59;100.00;61776.25;5112395;27;19920;-84
2023/04/25 10:55:07;;;;;;;;;;;;;;;-141.59;100.00;61776.25;5110191;28;19927;-84
2023/04/25 10:57:38;;;;;;;;;;;;;;;-141.59;100.00;61776.25;5111273;28;20399;-84
2023/04/25 11:00:15;;;;;;;;;;;;;;;-141.59;100.00;61776.25;5105416;28;19949;-84
2023/04/25 11:02:46;;;;;;;;;;;;;;;-141.59;100.00;61776.25;5108637;28;19919;-84
2023/04/25 11:05:23;;;;;;;;;;;;;;;-141.59;100.00;61776.25;5109216;28;19924;-85
2023/04/25 11:07:51;;;;;;;;;;;;;;;-141.59;100.00;61776.25;5105221;28;19926;-84
2023/04/25 11:10:19;;;;;;;;;;;;;;;-141.59;100.00;61776.25;5101608;28;19964;-84
2023/04/25 11:12:46;;;;;;;;;;;;;;;-141.59;100.00;61776.25;5109874;28;19923;-84
2023/04/25 11:15:12;;;;;;;;;;;;;;;-141.59;100.00;61776.25;5109590;28;19946;-84
2023/04/25 11:17:40;;;;;;;;;;;;;;;-141.59;100.00;61776.25;5111529;28;19980;-84
2023/04/25 11:20:11;;;;;;;;;;;;;;;-141.59;100.00;61776.25;5108298;28;19926;-84
2023/04/25 11:22:38;;;;;;;;;;;;;;;-141.59;100.00;61776.25;5106424;28;19927;-85
2023/04/25 11:25:06;;;;;;;;;;;;;;;-141.59;100.00;61776.25;5110687;28;19923;-84
2023/04/25 11:27:38;;;;;;;;;;;;;;;-141.59;100.00;61776.25;5099698;28;19920;-85
2023/04/25 11:30:15;;;;;;;;;;;;;;;-141.59;100.00;61776.25;5104089;28;19931;-84
2023/04/25 11:32:42;;;;;;;;;;;;;;;-141.59;100.00;61776.25;5104307;28;19920;-85
2023/04/25 11:35:10;;;;;;;;;;;;;;;-141.59;100.00;61776.25;5108950;28;19988;-86
2023/04/25 11:37:39;;;;;;;;;;;;;;;-141.59;100.00;61776.25;5104893;28;19924;-84
2023/04/25 11:40:09;;;;;;;;;;;;;;;-141.59;100.00;61776.25;5098271;28;20209;-84
2023/04/25 11:42:37;;;;;;;;;;;;;;;-141.59;100.00;61776.25;5104043;28;19924;-84
2023/04/25 11:45:05;;;;;;;;;;;;;;;-141.59;100.00;61776.25;5110944;28;19932;-84
2023/04/25 11:47:32;;;;;;;;;;;;;;;-141.59;100.00;61776.25;5106865;28;19955;-86
2023/04/25 11:50:00;;;;;;;;;;;;;;;-141.59;100.00;61776.25;5108268;28;19927;-86
2023/04/25 11:52:37;;;;;;;;;;;;;;;-141.59;100.00;61776.25;5108156;28;19963;-87
2023/04/25 11:55:06;;;;;;;;;;;;;;;-141.59;100.00;61776.25;5110283;28;19932;-86
2023/04/25 11:57:33;;;;;;;;;;;;;;;-141.59;100.00;61776.25;5107363;28;19924;-87
2023/04/25 12:00:06;;;;;;;;;;;;;;;-141.59;100.00;61776.25;5110426;28;19949;-85
2023/04/25 12:02:40;;;;;;;;;;;;;;;-141.59;100.00;61776.25;5105788;28;19924;-82
2023/04/25 12:05:08;;;;;;;;;;;;;;;-141.59;100.00;61776.25;5122969;27;19930;-82
2023/04/25 12:07:34;;;;;;;;;;;;;;;-141.59;100.00;61776.25;5098432;28;20025;-82
2023/04/25 12:10:06;;;;;;;;;;;;;;;-141.59;100.00;61776.25;5102523;28;20035;-82
2023/04/25 12:12:33;;;;;;;;;;;;;;;-141.59;100.00;61776.25;5111376;28;19928;-82
2023/04/25 12:15:09;;;;;;;;;;;;;;;-141.59;100.00;61776.25;5100749;28;19931;-82
2023/04/25 12:17:37;;;;;;;;;;;;;;;-141.59;100.00;61776.25;5106017;28;19967;-82
2023/04/25 12:20:07;;;;;;;;;;;;;;;-141.59;100.00;61776.25;5109088;28;19924;-81
2023/04/25 12:22:33;;;;;;;;;;;;;;;-141.59;100.00;61776.25;5118727;27;19923;-81
2023/04/25 12:25:00;;;;;;;;;;;;;;;-141.59;100.00;61776.25;5107188;28;19935;-81
2023/04/25 12:27:29;;;;;;;;;;;;;;;-141.59;100.00;61776.25;5109285;28;19970;-82
2023/04/25 12:29:56;;;;;;;;;;;;;;;-141.59;100.00;61776.25;5105351;28;19928;-81
2023/04/25 12:32:23;;;;;;;;;;;;;;;-141.59;100.00;61776.25;5106835;28;20199;-81
2023/04/25 12:34:50;;;;;;;;;;;;;;;-141.59;100.00;61776.25;5108520;28;19930;-80
2023/04/25 12:37:17;;;;;;;;;;;;;;;-141.59;100.00;61776.25;5106821;28;19969;-81